sensor_id;sensor_type;location;lat;lon;timestamp;pressure;altitude;pressure_sealevel;temperature;humidity
71504;BME280;59323;50.874;7.028;2023-05-23T00:00:53;101316.56;;;16.29;87.64
71504;BME280;59323;50.874;7.028;2023-05-23T00:03:18;101309.84;;;16.23;87.61
71504;BME280;59323;50.874;7.028;2023-05-23T00:05:47;101309.84;;;16.20;87.47
71504;BME280;59323;50.874;7.028;2023-05-23T00:08:12;101317.28;;;16.12;88.12
71504;BME280;59323;50.874;7.028;2023-05-23T00:10:37;101316.47;;;16.08;88.22
71504;BME280;59323;50.874;7.028;2023-05-23T00:13:03;101316.06;;;16.02;88.48
71504;BME280;59323;50.874;7.028;2023-05-23T00:15:29;101319.19;;;15.97;88.14
71504;BME280;59323;50.874;7.028;2023-05-23T00:17:55;101313.31;;;15.95;88.37
71504;BME280;59323;50.874;7.028;2023-05-23T00:20:20;101321.53;;;15.92;88.25
71504;BME280;59323;50.874;7.028;2023-05-23T00:22:47;101317.59;;;15.85;88.45
71504;BME280;59323;50.874;7.028;2023-05-23T00:25:12;101325.41;;;15.83;88.51
71504;BME280;59323;50.874;7.028;2023-05-23T00:27:37;101330.88;;;15.80;88.67
71504;BME280;59323;50.874;7.028;2023-05-23T00:30:03;101337.88;;;15.70;89.16
71504;BME280;59323;50.874;7.028;2023-05-23T00:32:28;101315.16;;;15.66;89.27
71504;BME280;59323;50.874;7.028;2023-05-23T00:34:54;101315.97;;;15.70;88.90
71504;BME280;59323;50.874;7.028;2023-05-23T00:37:20;101323.38;;;15.66;89.09
71504;BME280;59323;50.874;7.028;2023-05-23T00:39:47;101331.97;;;15.61;89.30
71504;BME280;59323;50.874;7.028;2023-05-23T00:42:12;101319.00;;;15.58;89.64
71504;BME280;59323;50.874;7.028;2023-05-23T00:44:37;101324.03;;;15.52;89.91
71504;BME280;59323;50.874;7.028;2023-05-23T00:47:05;101322.06;;;15.53;89.68
71504;BME280;59323;50.874;7.028;2023-05-23T00:49:31;101328.31;;;15.50;90.04
71504;BME280;59323;50.874;7.028;2023-05-23T00:51:57;101327.91;;;15.48;89.48
71504;BME280;59323;50.874;7.028;2023-05-23T00:54:27;101325.59;;;15.50;88.78
71504;BME280;59323;50.874;7.028;2023-05-23T00:56:53;101334.94;;;15.42;88.96
71504;BME280;59323;50.874;7.028;2023-05-23T00:59:20;101336.84;;;15.34;90.30
71504;BME280;59323;50.874;7.028;2023-05-23T01:01:47;101330.63;;;15.41;89.50
71504;BME280;59323;50.874;7.028;2023-05-23T01:04:14;101329.00;;;15.33;90.13
71504;BME280;59323;50.874;7.028;2023-05-23T01:06:40;101341.16;;;15.35;90.04
71504;BME280;59323;50.874;7.028;2023-05-23T01:09:11;101337.22;;;15.33;90.07
71504;BME280;59323;50.874;7.028;2023-05-23T01:14:28;101335.28;;;15.33;90.15
71504;BME280;59323;50.874;7.028;2023-05-23T01:17:11;101329.81;;;15.37;89.93
71504;BME280;59323;50.874;7.028;2023-05-23T01:20:02;101341.53;;;15.34;89.72
71504;BME280;59323;50.874;7.028;2023-05-23T01:28:02;101340.84;;;15.47;88.54
71504;BME280;59323;50.874;7.028;2023-05-23T01:30:35;101347.91;;;15.52;87.15
71504;BME280;59323;50.874;7.028;2023-05-23T01:33:03;101335.75;;;15.49;87.10
71504;BME280;59323;50.874;7.028;2023-05-23T01:35:30;101331.06;;;15.53;86.07
71504;BME280;59323;50.874;7.028;2023-05-23T01:37:56;101338.53;;;15.57;85.63
71504;BME280;59323;50.874;7.028;2023-05-23T01:40:22;101336.22;;;15.59;85.27
71504;BME280;59323;50.874;7.028;2023-05-23T01:42:48;101333.53;;;15.62;85.19
71504;BME280;59323;50.874;7.028;2023-05-23T01:45:14;101339.00;;;15.62;85.43
71504;BME280;59323;50.874;7.028;2023-05-23T01:47:41;101342.91;;;15.61;85.83
71504;BME280;59323;50.874;7.028;2023-05-23T01:50:08;101343.31;;;15.63;86.27
71504;BME280;59323;50.874;7.028;2023-05-23T01:52:35;101344.50;;;15.62;86.04
71504;BME280;59323;50.874;7.028;2023-05-23T01:55:02;101344.88;;;15.61;86.99
71504;BME280;59323;50.874;7.028;2023-05-23T01:57:31;101347.66;;;15.68;86.77
71504;BME280;59323;50.874;7.028;2023-05-23T01:59:57;101347.66;;;15.68;86.80
71504;BME280;59323;50.874;7.028;2023-05-23T02:02:23;101352.31;;;15.64;86.93
71504;BME280;59323;50.874;7.028;2023-05-23T02:04:48;101348.00;;;15.63;86.68
71504;BME280;59323;50.874;7.028;2023-05-23T02:07:14;101354.63;;;15.58;87.36
71504;BME280;59323;50.874;7.028;2023-05-23T02:09:39;101364.06;;;15.61;86.90
71504;BME280;59323;50.874;7.028;2023-05-23T02:12:05;101361.22;;;15.57;86.50
71504;BME280;59323;50.874;7.028;2023-05-23T02:14:30;101360.84;;;15.55;85.60
71504;BME280;59323;50.874;7.028;2023-05-23T02:16:55;101372.56;;;15.52;85.21
71504;BME280;59323;50.874;7.028;2023-05-23T02:19:21;101372.13;;;15.46;85.43
71504;BME280;59323;50.874;7.028;2023-05-23T02:21:46;101371.31;;;15.42;84.84
71504;BME280;59323;50.874;7.028;2023-05-23T02:24:11;101370.13;;;15.40;84.72
71504;BME280;59323;50.874;7.028;2023-05-23T02:26:37;101372.84;;;15.36;85.15
71504;BME280;59323;50.874;7.028;2023-05-23T02:29:02;101383.00;;;15.36;84.98
71504;BME280;59323;50.874;7.028;2023-05-23T02:31:27;101383.00;;;15.32;85.55
71504;BME280;59323;50.874;7.028;2023-05-23T02:33:53;101383.78;;;15.33;84.94
71504;BME280;59323;50.874;7.028;2023-05-23T02:36:18;101389.63;;;15.31;85.22
71504;BME280;59323;50.874;7.028;2023-05-23T02:38:43;101388.47;;;15.32;85.11
71504;BME280;59323;50.874;7.028;2023-05-23T02:41:09;101390.03;;;15.33;85.34
71504;BME280;59323;50.874;7.028;2023-05-23T02:43:34;101386.53;;;15.36;84.61
71504;BME280;59323;50.874;7.028;2023-05-23T02:46:00;101386.94;;;15.38;84.72
71504;BME280;59323;50.874;7.028;2023-05-23T02:48:25;101382.63;;;15.37;84.02
71504;BME280;59323;50.874;7.028;2023-05-23T02:50:50;101379.09;;;15.37;83.76
71504;BME280;59323;50.874;7.028;2023-05-23T02:53:16;101385.34;;;15.34;83.93
71504;BME280;59323;50.874;7.028;2023-05-23T02:55:42;101389.63;;;15.31;84.34
71504;BME280;59323;50.874;7.028;2023-05-23T02:58:07;101384.16;;;15.31;84.00
71504;BME280;59323;50.874;7.028;2023-05-23T03:00:33;101381.44;;;15.35;83.73
71504;BME280;59323;50.874;7.028;2023-05-23T03:02:58;101378.31;;;15.33;83.48
71504;BME280;59323;50.874;7.028;2023-05-23T03:05:24;101379.06;;;15.30;84.13
71504;BME280;59323;50.874;7.028;2023-05-23T03:07:49;101379.06;;;15.30;84.34
71504;BME280;59323;50.874;7.028;2023-05-23T03:10:16;101382.59;;;15.34;84.09
71504;BME280;59323;50.874;7.028;2023-05-23T03:12:41;101380.25;;;15.32;84.38
71504;BME280;59323;50.874;7.028;2023-05-23T03:15:08;101375.56;;;15.33;84.29
71504;BME280;59323;50.874;7.028;2023-05-23T03:17:34;101378.28;;;15.29;84.20
71504;BME280;59323;50.874;7.028;2023-05-23T03:19:59;101380.63;;;15.31;84.05
71504;BME280;59323;50.874;7.028;2023-05-23T03:22:24;101377.47;;;15.25;84.70
71504;BME280;59323;50.874;7.028;2023-05-23T03:24:50;101386.88;;;15.28;84.78
71504;BME280;59323;50.874;7.028;2023-05-23T03:27:15;101389.19;;;15.26;84.58
71504;BME280;59323;50.874;7.028;2023-05-23T03:29:40;101388.00;;;15.19;85.13
71504;BME280;59323;50.874;7.028;2023-05-23T03:32:06;101394.63;;;15.18;85.60
71504;BME280;59323;50.874;7.028;2023-05-23T03:34:31;101396.56;;;15.18;85.63
71504;BME280;59323;50.874;7.028;2023-05-23T03:36:58;101403.28;;;15.24;85.50
71504;BME280;59323;50.874;7.028;2023-05-23T03:39:24;101396.22;;;15.23;85.67
71504;BME280;59323;50.874;7.028;2023-05-23T03:41:49;101409.09;;;15.19;85.90
71504;BME280;59323;50.874;7.028;2023-05-23T03:44:15;101402.06;;;15.18;86.06
71504;BME280;59323;50.874;7.028;2023-05-23T03:46:40;101400.44;;;15.13;86.52
71504;BME280;59323;50.874;7.028;2023-05-23T03:49:05;101401.63;;;15.12;87.20
71504;BME280;59323;50.874;7.028;2023-05-23T03:51:31;101400.81;;;15.08;87.98
71504;BME280;59323;50.874;7.028;2023-05-23T03:53:56;101400.38;;;15.03;89.38
71504;BME280;59323;50.874;7.028;2023-05-23T03:56:21;101402.22;;;14.95;90.70
71504;BME280;59323;50.874;7.028;2023-05-23T03:58:47;101414.31;;;14.90;90.99
71504;BME280;59323;50.874;7.028;2023-05-23T04:01:12;101408.84;;;14.90;90.33
71504;BME280;59323;50.874;7.028;2023-05-23T04:03:38;101401.75;;;14.86;90.35
71504;BME280;59323;50.874;7.028;2023-05-23T04:06:03;101407.16;;;14.79;90.39
71504;BME280;59323;50.874;7.028;2023-05-23T04:08:29;101408.31;;;14.78;90.27
71504;BME280;59323;50.874;7.028;2023-05-23T04:11:01;101411.81;;;14.75;90.86
71504;BME280;59323;50.874;7.028;2023-05-23T04:13:27;101419.22;;;14.74;91.37
71504;BME280;59323;50.874;7.028;2023-05-23T04:15:53;101415.72;;;14.74;91.68
71504;BME280;59323;50.874;7.028;2023-05-23T04:18:20;101412.97;;;14.74;91.19
71504;BME280;59323;50.874;7.028;2023-05-23T04:20:46;101416.88;;;14.73;91.42
71504;BME280;59323;50.874;7.028;2023-05-23T04:23:12;101425.03;;;14.69;91.68
71504;BME280;59323;50.874;7.028;2023-05-23T04:25:37;101422.34;;;14.73;91.53
71504;BME280;59323;50.874;7.028;2023-05-23T04:28:03;101432.50;;;14.72;90.96
71504;BME280;59323;50.874;7.028;2023-05-23T04:30:29;101426.59;;;14.67;91.58
71504;BME280;59323;50.874;7.028;2023-05-23T04:32:55;101425.13;;;14.76;90.09
71504;BME280;59323;50.874;7.028;2023-05-23T04:35:22;101436.44;;;14.75;90.51
71504;BME280;59323;50.874;7.028;2023-05-23T04:37:47;101437.22;;;14.75;89.38
71504;BME280;59323;50.874;7.028;2023-05-23T04:40:13;101432.53;;;14.76;89.62
71504;BME280;59323;50.874;7.028;2023-05-23T04:42:38;101430.19;;;14.74;89.46
71504;BME280;59323;50.874;7.028;2023-05-23T04:45:07;101433.31;;;14.76;88.71
71504;BME280;59323;50.874;7.028;2023-05-23T04:47:33;101441.97;;;14.82;87.71
71504;BME280;59323;50.874;7.028;2023-05-23T04:49:59;101433.41;;;14.83;87.66
71504;BME280;59323;50.874;7.028;2023-05-23T04:52:25;101438.91;;;14.87;87.29
71504;BME280;59323;50.874;7.028;2023-05-23T04:54:51;101443.22;;;14.88;87.28
71504;BME280;59323;50.874;7.028;2023-05-23T04:57:18;101444.38;;;14.87;87.86
71504;BME280;59323;50.874;7.028;2023-05-23T04:59:43;101441.63;;;14.87;87.62
71504;BME280;59323;50.874;7.028;2023-05-23T05:02:08;101439.69;;;14.87;87.71
71504;BME280;59323;50.874;7.028;2023-05-23T05:04:34;101443.59;;;14.86;87.48
71504;BME280;59323;50.874;7.028;2023-05-23T05:07:00;101450.59;;;14.84;87.67
71504;BME280;59323;50.874;7.028;2023-05-23T05:09:28;101449.03;;;14.83;88.17
71504;BME280;59323;50.874;7.028;2023-05-23T05:11:54;101445.09;;;14.80;88.99
71504;BME280;59323;50.874;7.028;2023-05-23T05:14:19;101448.16;;;14.75;89.33
71504;BME280;59323;50.874;7.028;2023-05-23T05:16:45;101447.72;;;14.70;90.21
71504;BME280;59323;50.874;7.028;2023-05-23T05:19:11;101458.31;;;14.75;90.38
71504;BME280;59323;50.874;7.028;2023-05-23T05:21:37;101460.59;;;14.69;90.95
71504;BME280;59323;50.874;7.028;2023-05-23T05:24:02;101460.22;;;14.71;91.29
71504;BME280;59323;50.874;7.028;2023-05-23T05:26:27;101457.47;;;14.67;91.52
71504;BME280;59323;50.874;7.028;2023-05-23T05:28:53;101460.16;;;14.64;91.47
71504;BME280;59323;50.874;7.028;2023-05-23T05:31:18;101461.69;;;14.61;91.60
71504;BME280;59323;50.874;7.028;2023-05-23T05:33:43;101462.91;;;14.64;91.37
71504;BME280;59323;50.874;7.028;2023-05-23T05:36:10;101465.28;;;14.69;90.07
71504;BME280;59323;50.874;7.028;2023-05-23T05:38:35;101466.47;;;14.68;90.07
71504;BME280;59323;50.874;7.028;2023-05-23T05:41:00;101467.28;;;14.72;90.10
71504;BME280;59323;50.874;7.028;2023-05-23T05:43:26;101469.28;;;14.75;89.52
71504;BME280;59323;50.874;7.028;2023-05-23T05:45:51;101471.63;;;14.76;89.38
71504;BME280;59323;50.874;7.028;2023-05-23T05:48:16;101470.84;;;14.76;89.02
71504;BME280;59323;50.874;7.028;2023-05-23T05:50:42;101471.63;;;14.76;89.12
71504;BME280;59323;50.874;7.028;2023-05-23T05:53:10;101471.22;;;14.74;89.38
71504;BME280;59323;50.874;7.028;2023-05-23T05:55:35;101477.56;;;14.82;89.06
71504;BME280;59323;50.874;7.028;2023-05-23T05:58:02;101484.59;;;14.83;89.03
71504;BME280;59323;50.874;7.028;2023-05-23T06:00:27;101475.59;;;14.82;88.75
71504;BME280;59323;50.874;7.028;2023-05-23T06:02:52;101485.34;;;14.80;89.05
71504;BME280;59323;50.874;7.028;2023-05-23T06:05:22;101483.00;;;14.78;88.82
71504;BME280;59323;50.874;7.028;2023-05-23T06:07:48;101485.34;;;14.80;89.28
71504;BME280;59323;50.874;7.028;2023-05-23T06:10:14;101489.66;;;14.81;89.05
71504;BME280;59323;50.874;7.028;2023-05-23T06:12:39;101492.03;;;14.82;88.84
71504;BME280;59323;50.874;7.028;2023-05-23T06:15:05;101496.25;;;14.76;89.19
71504;BME280;59323;50.874;7.028;2023-05-23T06:17:31;101492.72;;;14.76;89.42
71504;BME280;59323;50.874;7.028;2023-05-23T06:19:56;101489.63;;;14.77;89.28
71504;BME280;59323;50.874;7.028;2023-05-23T06:22:22;101487.63;;;14.74;89.82
71504;BME280;59323;50.874;7.028;2023-05-23T06:24:47;101498.16;;;14.72;89.84
71504;BME280;59323;50.874;7.028;2023-05-23T06:27:13;101486.03;;;14.70;89.71
71504;BME280;59323;50.874;7.028;2023-05-23T06:29:38;101493.03;;;14.67;90.28
71504;BME280;59323;50.874;7.028;2023-05-23T06:32:04;101501.28;;;14.71;90.26
71504;BME280;59323;50.874;7.028;2023-05-23T06:34:30;101489.97;;;14.72;89.66
71504;BME280;59323;50.874;7.028;2023-05-23T06:36:55;101488.00;;;14.73;89.76
71504;BME280;59323;50.874;7.028;2023-05-23T06:39:20;101500.94;;;14.76;90.11
71504;BME280;59323;50.874;7.028;2023-05-23T06:41:46;101504.06;;;14.74;90.42
71504;BME280;59323;50.874;7.028;2023-05-23T06:44:12;101504.84;;;14.75;90.08
71504;BME280;59323;50.874;7.028;2023-05-23T06:46:37;101509.16;;;14.76;90.03
71504;BME280;59323;50.874;7.028;2023-05-23T06:49:02;101507.56;;;14.75;89.62
71504;BME280;59323;50.874;7.028;2023-05-23T06:51:27;101516.94;;;14.74;89.91
71504;BME280;59323;50.874;7.028;2023-05-23T06:53:53;101518.09;;;14.73;90.18
71504;BME280;59323;50.874;7.028;2023-05-23T06:56:21;101524.31;;;14.70;90.61
71504;BME280;59323;50.874;7.028;2023-05-23T06:58:46;101520.00;;;14.69;90.94
71504;BME280;59323;50.874;7.028;2023-05-23T07:01:11;101521.59;;;14.70;90.72
71504;BME280;59323;50.874;7.028;2023-05-23T07:03:37;101531.75;;;14.69;90.85
71504;BME280;59323;50.874;7.028;2023-05-23T07:06:05;101532.13;;;14.68;90.96
71504;BME280;59323;50.874;7.028;2023-05-23T07:08:32;101529.72;;;14.63;90.99
71504;BME280;59323;50.874;7.028;2023-05-23T07:10:57;101538.69;;;14.63;91.32
71504;BME280;59323;50.874;7.028;2023-05-23T07:13:23;101537.13;;;14.62;91.27
71504;BME280;59323;50.874;7.028;2023-05-23T07:15:48;101536.78;;;14.67;90.64
71504;BME280;59323;50.874;7.028;2023-05-23T07:18:13;101535.69;;;14.72;90.26
71504;BME280;59323;50.874;7.028;2023-05-23T07:20:39;101543.56;;;14.77;89.74
71504;BME280;59323;50.874;7.028;2023-05-23T07:23:04;101538.91;;;14.81;89.44
71504;BME280;59323;50.874;7.028;2023-05-23T07:25:29;101543.25;;;14.85;89.42
71504;BME280;59323;50.874;7.028;2023-05-23T07:27:55;101539.78;;;14.88;88.58
71504;BME280;59323;50.874;7.028;2023-05-23T07:30:20;101535.22;;;14.96;88.13
71504;BME280;59323;50.874;7.028;2023-05-23T07:32:47;101533.28;;;15.00;87.14
71504;BME280;59323;50.874;7.028;2023-05-23T07:35:13;101543.91;;;15.05;87.44
71504;BME280;59323;50.874;7.028;2023-05-23T07:37:39;101543.53;;;15.07;86.93
71504;BME280;59323;50.874;7.028;2023-05-23T07:40:04;101539.22;;;15.06;86.80
71504;BME280;59323;50.874;7.028;2023-05-23T07:42:30;101544.28;;;15.04;87.13
71504;BME280;59323;50.874;7.028;2023-05-23T07:44:55;101540.75;;;15.03;85.83
71504;BME280;59323;50.874;7.028;2023-05-23T07:47:21;101549.75;;;15.04;86.72
71504;BME280;59323;50.874;7.028;2023-05-23T07:49:46;101548.63;;;15.08;86.82
71504;BME280;59323;50.874;7.028;2023-05-23T07:52:11;101550.19;;;15.09;87.20
71504;BME280;59323;50.874;7.028;2023-05-23T07:54:37;101551.78;;;15.10;86.98
71504;BME280;59323;50.874;7.028;2023-05-23T07:57:02;101557.66;;;15.12;86.79
71504;BME280;59323;50.874;7.028;2023-05-23T07:59:28;101553.75;;;15.13;86.72
71504;BME280;59323;50.874;7.028;2023-05-23T08:01:54;101557.38;;;15.21;86.64
71504;BME280;59323;50.874;7.028;2023-05-23T08:04:19;101559.38;;;15.28;86.07
71504;BME280;59323;50.874;7.028;2023-05-23T08:06:45;101558.25;;;15.32;86.16
71504;BME280;59323;50.874;7.028;2023-05-23T08:09:12;101562.16;;;15.31;86.10
71504;BME280;59323;50.874;7.028;2023-05-23T08:11:37;101569.19;;;15.29;86.26
71504;BME280;59323;50.874;7.028;2023-05-23T08:14:03;101564.88;;;15.28;86.35
71504;BME280;59323;50.874;7.028;2023-05-23T08:16:28;101569.91;;;15.22;86.25
71504;BME280;59323;50.874;7.028;2023-05-23T08:18:53;101574.59;;;15.21;85.65
71504;BME280;59323;50.874;7.028;2023-05-23T08:21:19;101576.16;;;15.22;86.34
71504;BME280;59323;50.874;7.028;2023-05-23T08:23:44;101579.69;;;15.23;86.29
71504;BME280;59323;50.874;7.028;2023-05-23T08:26:09;101582.84;;;15.25;86.36
71504;BME280;59323;50.874;7.028;2023-05-23T08:28:35;101583.22;;;15.23;86.03
71504;BME280;59323;50.874;7.028;2023-05-23T08:31:00;101584.75;;;15.21;85.99
71504;BME280;59323;50.874;7.028;2023-05-23T08:33:25;101588.59;;;15.16;86.11
71504;BME280;59323;50.874;7.028;2023-05-23T08:35:51;101594.84;;;15.13;86.12
71504;BME280;59323;50.874;7.028;2023-05-23T08:38:16;101593.63;;;15.11;85.61
71504;BME280;59323;50.874;7.028;2023-05-23T08:40:48;101590.84;;;15.07;86.21
71504;BME280;59323;50.874;7.028;2023-05-23T08:43:15;101593.59;;;15.07;85.75
71504;BME280;59323;50.874;7.028;2023-05-23T08:45:40;101594.75;;;15.06;84.99
71504;BME280;59323;50.874;7.028;2023-05-23T08:48:07;101599.03;;;15.04;85.44
71504;BME280;59323;50.874;7.028;2023-05-23T08:50:39;101596.25;;;15.00;85.08
71504;BME280;59323;50.874;7.028;2023-05-23T08:53:07;101600.53;;;14.98;86.09
71504;BME280;59323;50.874;7.028;2023-05-23T08:55:36;101601.31;;;14.98;86.25
71504;BME280;59323;50.874;7.028;2023-05-23T08:58:02;101607.16;;;14.97;86.48
71504;BME280;59323;50.874;7.028;2023-05-23T09:00:28;101608.66;;;14.94;86.45
71504;BME280;59323;50.874;7.028;2023-05-23T09:02:54;101620.06;;;14.96;86.43
71504;BME280;59323;50.874;7.028;2023-05-23T09:05:20;101616.09;;;14.94;86.79
71504;BME280;59323;50.874;7.028;2023-05-23T09:07:46;101618.41;;;14.91;87.14
71504;BME280;59323;50.874;7.028;2023-05-23T09:10:12;101617.91;;;14.82;87.77
71504;BME280;59323;50.874;7.028;2023-05-23T09:12:38;101630.84;;;14.85;87.08
71504;BME280;59323;50.874;7.028;2023-05-23T09:15:05;101623.00;;;14.84;86.93
71504;BME280;59323;50.874;7.028;2023-05-23T09:17:34;101629.63;;;14.83;87.22
71504;BME280;59323;50.874;7.028;2023-05-23T09:20:01;101631.22;;;14.84;87.52
71504;BME280;59323;50.874;7.028;2023-05-23T09:22:27;101635.88;;;14.83;87.53
71504;BME280;59323;50.874;7.028;2023-05-23T09:24:54;101639.09;;;14.89;87.45
71504;BME280;59323;50.874;7.028;2023-05-23T09:27:19;101636.31;;;14.85;87.42
71504;BME280;59323;50.874;7.028;2023-05-23T09:29:45;101633.66;;;14.93;87.06
71504;BME280;59323;50.874;7.028;2023-05-23T09:32:19;101636.03;;;14.94;86.83
71504;BME280;59323;50.874;7.028;2023-05-23T09:34:59;101641.94;;;14.96;87.31
71504;BME280;59323;50.874;7.028;2023-05-23T09:37:38;101637.69;;;14.99;87.48
71504;BME280;59323;50.874;7.028;2023-05-23T09:40:14;101644.44;;;15.08;86.91
71504;BME280;59323;50.874;7.028;2023-05-23T09:42:46;101650.00;;;15.15;86.71
71504;BME280;59323;50.874;7.028;2023-05-23T09:45:13;101641.47;;;15.20;84.92
71504;BME280;59323;50.874;7.028;2023-05-23T09:47:51;101638.34;;;15.22;85.45
71504;BME280;59323;50.874;7.028;2023-05-23T09:50:17;101645.72;;;15.18;83.11
71504;BME280;59323;50.874;7.028;2023-05-23T09:52:42;101643.28;;;15.09;83.06
71504;BME280;59323;50.874;7.028;2023-05-23T09:55:08;101643.16;;;14.99;83.25
71504;BME280;59323;50.874;7.028;2023-05-23T09:57:34;101647.06;;;14.98;84.08
71504;BME280;59323;50.874;7.028;2023-05-23T10:00:03;101660.25;;;14.92;85.11
71504;BME280;59323;50.874;7.028;2023-05-23T10:02:53;101652.31;;;14.83;85.24
71504;BME280;59323;50.874;7.028;2023-05-23T10:05:37;101653.69;;;14.70;84.60
71504;BME280;59323;50.874;7.028;2023-05-23T10:08:26;101661.34;;;14.57;84.68
71504;BME280;59323;50.874;7.028;2023-05-23T10:13:21;101672.41;;;14.42;85.76
71504;BME280;59323;50.874;7.028;2023-05-23T10:15:54;101667.63;;;14.35;86.04
71504;BME280;59323;50.874;7.028;2023-05-23T10:18:25;101676.56;;;14.32;85.53
71504;BME280;59323;50.874;7.028;2023-05-23T10:20:56;101676.78;;;14.23;85.09
71504;BME280;59323;50.874;7.028;2023-05-23T10:23:25;101674.72;;;14.17;85.15
71504;BME280;59323;50.874;7.028;2023-05-23T10:25:51;101669.25;;;14.17;85.48
71504;BME280;59323;50.874;7.028;2023-05-23T10:28:17;101677.97;;;14.26;85.45
71504;BME280;59323;50.874;7.028;2023-05-23T10:30:43;101675.94;;;14.42;85.22
71504;BME280;59323;50.874;7.028;2023-05-23T10:33:13;101677.00;;;14.61;85.24
71504;BME280;59323;50.874;7.028;2023-05-23T10:35:55;101671.78;;;14.78;83.85
71504;BME280;59323;50.874;7.028;2023-05-23T10:38:58;101673.19;;;14.95;82.86
71504;BME280;59323;50.874;7.028;2023-05-23T10:41:31;101679.16;;;15.01;83.27
71504;BME280;59323;50.874;7.028;2023-05-23T10:44:14;101684.19;;;15.29;82.47
71504;BME280;59323;50.874;7.028;2023-05-23T10:46:50;101683.72;;;15.57;80.08
71504;BME280;59323;50.874;7.028;2023-05-23T10:49:17;101687.88;;;15.73;78.82
71504;BME280;59323;50.874;7.028;2023-05-23T10:51:47;101686.63;;;16.08;77.59
71504;BME280;59323;50.874;7.028;2023-05-23T10:54:13;101689.16;;;16.27;75.82
71504;BME280;59323;50.874;7.028;2023-05-23T10:56:38;101695.06;;;16.29;76.25
71504;BME280;59323;50.874;7.028;2023-05-23T10:59:04;101690.25;;;16.19;74.98
71504;BME280;59323;50.874;7.028;2023-05-23T11:01:30;101696.66;;;16.34;74.45
71504;BME280;59323;50.874;7.028;2023-05-23T11:03:56;101696.44;;;16.57;73.60
71504;BME280;59323;50.874;7.028;2023-05-23T11:06:29;101698.50;;;16.67;73.32
71504;BME280;59323;50.874;7.028;2023-05-23T11:09:05;101699.78;;;16.87;72.10
71504;BME280;59323;50.874;7.028;2023-05-23T11:11:59;101696.13;;;16.65;71.83
71504;BME280;59323;50.874;7.028;2023-05-23T11:16:57;101720.38;;;16.15;73.29
71504;BME280;59323;50.874;7.028;2023-05-23T11:19:25;101714.63;;;15.87;73.63
71504;BME280;59323;50.874;7.028;2023-05-23T11:24:22;101734.66;;;15.58;74.71
71504;BME280;59323;50.874;7.028;2023-05-23T11:26:57;101732.13;;;15.45;75.81
71504;BME280;59323;50.874;7.028;2023-05-23T11:29:26;101744.63;;;15.43;76.32
71504;BME280;59323;50.874;7.028;2023-05-23T11:31:53;101739.09;;;15.39;76.14
71504;BME280;59323;50.874;7.028;2023-05-23T11:34:19;101734.41;;;15.40;75.82
71504;BME280;59323;50.874;7.028;2023-05-23T11:36:45;101731.06;;;15.23;75.66
71504;BME280;59323;50.874;7.028;2023-05-23T11:39:12;101734.56;;;15.20;75.78
71504;BME280;59323;50.874;7.028;2023-05-23T11:41:40;101739.06;;;15.36;75.68
71504;BME280;59323;50.874;7.028;2023-05-23T11:44:12;101738.72;;;15.41;74.71
71504;BME280;59323;50.874;7.028;2023-05-23T11:46:38;101744.72;;;15.50;76.74
71504;BME280;59323;50.874;7.028;2023-05-23T11:49:09;101745.16;;;15.55;73.96
71504;BME280;59323;50.874;7.028;2023-05-23T11:51:35;101752.09;;;15.46;72.81
71504;BME280;59323;50.874;7.028;2023-05-23T11:54:00;101746.19;;;15.44;72.14
71504;BME280;59323;50.874;7.028;2023-05-23T11:56:26;101742.22;;;15.38;72.50
71504;BME280;59323;50.874;7.028;2023-05-23T11:58:51;101745.06;;;15.48;71.72
71504;BME280;59323;50.874;7.028;2023-05-23T12:01:19;101746.69;;;15.53;71.38
71504;BME280;59323;50.874;7.028;2023-05-23T12:03:49;101747.50;;;15.53;70.36
71504;BME280;59323;50.874;7.028;2023-05-23T12:06:17;101744.38;;;15.55;70.33
71504;BME280;59323;50.874;7.028;2023-05-23T12:08:43;101744.06;;;15.60;70.70
71504;BME280;59323;50.874;7.028;2023-05-23T12:11:09;101750.13;;;15.73;69.26
71504;BME280;59323;50.874;7.028;2023-05-23T12:13:36;101741.22;;;15.83;70.16
71504;BME280;59323;50.874;7.028;2023-05-23T12:16:01;101734.34;;;16.00;68.96
71504;BME280;59323;50.874;7.028;2023-05-23T12:18:30;101747.41;;;16.13;68.11
71504;BME280;59323;50.874;7.028;2023-05-23T12:21:03;101741.56;;;16.18;67.05
71504;BME280;59323;50.874;7.028;2023-05-23T12:23:30;101745.41;;;16.10;66.35
71504;BME280;59323;50.874;7.028;2023-05-23T12:25:57;101744.25;;;16.11;65.64
71504;BME280;59323;50.874;7.028;2023-05-23T12:28:42;101736.03;;;16.11;67.59
71504;BME280;59323;50.874;7.028;2023-05-23T12:31:27;101736.88;;;16.19;69.43
71504;BME280;59323;50.874;7.028;2023-05-23T12:33:52;101735.81;;;16.27;68.88
71504;BME280;59323;50.874;7.028;2023-05-23T12:36:23;101732.31;;;16.34;66.54
71504;BME280;59323;50.874;7.028;2023-05-23T12:38:49;101733.06;;;16.27;66.40
71504;BME280;59323;50.874;7.028;2023-05-23T12:41:16;101741.94;;;16.17;69.33
71504;BME280;59323;50.874;7.028;2023-05-23T12:43:54;101743.91;;;16.16;67.14
71504;BME280;59323;50.874;7.028;2023-05-23T12:46:21;101733.69;;;16.13;66.40
71504;BME280;59323;50.874;7.028;2023-05-23T12:48:47;101739.09;;;16.06;67.09
71504;BME280;59323;50.874;7.028;2023-05-23T12:51:13;101742.97;;;16.02;67.61
71504;BME280;59323;50.874;7.028;2023-05-23T12:53:38;101751.22;;;16.02;66.19
71504;BME280;59323;50.874;7.028;2023-05-23T12:56:04;101756.25;;;15.96;66.10
71504;BME280;59323;50.874;7.028;2023-05-23T12:58:30;101746.41;;;15.92;66.28
71504;BME280;59323;50.874;7.028;2023-05-23T13:00:56;101746.47;;;15.99;66.69
71504;BME280;59323;50.874;7.028;2023-05-23T13:03:21;101752.44;;;16.08;66.07
71504;BME280;59323;50.874;7.028;2023-05-23T13:05:47;101755.53;;;16.03;65.88